KEST/EST METAR and TAF weather

Enter ICAO airport designator
Station Type Date Time Source
KEST METAR 2023/02/05 13:52 UTC NOAA

KEST 051352Z AUTO 33015KT 10SM OVC006 M02/M04 A2995 RMK AO2 PK WND 32027/1332 SLP159 T10171039


Station Type Date Time Source
KEST Decoded METAR 2023/02/05 13:52 UTC NOAA

ESTHERVILLE MUNICIPAL AIRPORT , IA, United States (KEST) 43-24N 94-45W 401M
Feb 05, 2023 - 08:52 AM EST / 2023.02.05 1352 UTC
Wind: from the NNW (330 degrees) at 17 MPH (15 KT):0
Visibility: 10 mile(s):0
Sky conditions: overcast
Temperature: 28.9 F (-1.7 C)
Windchill: 17 F (-8 C):1
Dew Point: 25.0 F (-3.9 C)
Relative Humidity: 84%
Pressure (altimeter): 29.95 in. Hg (1014 hPa)
ob: KEST 051352Z AUTO 33015KT 10SM OVC006 M02/M04 A2995 RMK AO2 PK WND 32027/1332 SLP159 T10171039
cycle: 14

Station Type Date Time Source
KEST TAF UTC NOAA

Error!

Example: see airport list